createdAt,value
2017-11-25T00:00:07.300Z,24.10
2017-11-25T00:01:07.265Z,23.80
2017-11-25T00:02:07.222Z,29.20
2017-11-25T00:03:07.190Z,25.70
2017-11-25T00:04:07.149Z,26.40
2017-11-25T00:05:07.115Z,24.10
2017-11-25T00:06:07.078Z,23.20
2017-11-25T00:07:07.085Z,26.00
2017-11-25T00:08:07.094Z,24.00
2017-11-25T00:09:06.959Z,27.20
2017-11-25T00:10:06.917Z,25.60
2017-11-25T00:11:06.886Z,22.90
2017-11-25T00:12:06.837Z,25.80
2017-11-25T00:13:06.798Z,24.10
2017-11-25T00:14:06.789Z,22.90
2017-11-25T00:15:06.749Z,23.50
2017-11-25T00:16:06.688Z,22.30
2017-11-25T00:17:06.680Z,31.00
2017-11-25T00:18:06.615Z,28.50
2017-11-25T00:19:06.574Z,29.30
2017-11-25T00:20:06.537Z,26.20
2017-11-25T00:21:06.502Z,25.50
2017-11-25T00:22:06.449Z,24.90
2017-11-25T00:23:06.413Z,28.90
2017-11-25T00:24:06.383Z,28.00
2017-11-25T00:25:06.341Z,25.40
2017-11-25T00:26:06.293Z,30.60
2017-11-25T00:27:06.271Z,25.30
2017-11-25T00:28:06.227Z,23.70
2017-11-25T00:29:06.183Z,22.10
2017-11-25T00:30:06.140Z,25.40
2017-11-25T00:31:06.120Z,24.20
2017-11-25T00:32:06.077Z,27.30
2017-11-25T00:33:06.030Z,24.40
2017-11-25T00:34:05.993Z,23.60
2017-11-25T00:35:06.530Z,25.10
2017-11-25T00:36:05.915Z,24.70
2017-11-25T00:37:05.870Z,26.40
2017-11-25T00:38:05.859Z,23.30
2017-11-25T00:39:05.795Z,29.00
2017-11-25T00:40:05.765Z,26.40
2017-11-25T00:41:05.721Z,28.20
2017-11-25T00:42:05.685Z,25.60
2017-11-25T00:43:05.639Z,28.00
2017-11-25T00:44:05.600Z,28.70
2017-11-25T00:45:05.560Z,29.00
2017-11-25T00:46:05.518Z,26.30
2017-11-25T00:47:05.540Z,37.70
2017-11-25T00:48:05.441Z,30.90
2017-11-25T00:49:05.408Z,27.60
2017-11-25T00:50:05.377Z,30.10
2017-11-25T00:51:05.328Z,29.30
2017-11-25T00:52:05.294Z,26.00
2017-11-25T00:53:05.254Z,30.50
2017-11-25T00:54:05.214Z,34.20
2017-11-25T00:55:05.167Z,29.30
2017-11-25T00:56:05.152Z,27.70
2017-11-25T00:57:05.093Z,29.20
2017-11-25T00:58:05.065Z,29.60
2017-11-25T00:59:05.042Z,28.90
2017-11-25T01:00:04.976Z,30.40
2017-11-25T01:01:04.955Z,29.20
2017-11-25T01:02:04.918Z,28.90
2017-11-25T01:03:04.863Z,29.60
2017-11-25T01:04:04.857Z,31.00
2017-11-25T01:05:04.791Z,27.20
2017-11-25T01:06:04.763Z,28.80
2017-11-25T01:07:04.702Z,27.30
2017-11-25T01:08:04.681Z,29.30
2017-11-25T01:09:04.637Z,29.60
2017-11-25T01:10:04.607Z,30.10
2017-11-25T01:11:04.553Z,28.50
2017-11-25T01:12:04.507Z,28.50
2017-11-25T01:13:04.470Z,29.00
2017-11-25T01:14:04.432Z,27.20
2017-11-25T01:15:04.434Z,30.50
2017-11-25T01:16:04.348Z,29.40
2017-11-25T01:17:04.311Z,28.30
2017-11-25T01:18:04.278Z,27.20
2017-11-25T01:19:04.229Z,29.50
2017-11-25T01:20:04.193Z,28.50
2017-11-25T01:21:04.153Z,31.90
2017-11-25T01:22:04.116Z,29.90
2017-11-25T01:23:04.077Z,27.60
2017-11-25T01:24:04.038Z,28.90
2017-11-25T01:25:03.993Z,30.70
2017-11-25T01:26:03.972Z,28.30
2017-11-25T01:27:03.921Z,27.70
2017-11-25T01:28:03.953Z,28.00
2017-11-25T01:29:03.837Z,32.90
2017-11-25T01:30:03.810Z,29.60
2017-11-25T01:31:03.768Z,31.00
2017-11-25T01:32:03.725Z,34.90
2017-11-25T01:33:03.686Z,30.90
2017-11-25T01:34:03.644Z,30.80
2017-11-25T01:35:03.619Z,29.30
2017-11-25T01:36:03.566Z,33.20
2017-11-25T01:37:03.532Z,33.60
2017-11-25T01:38:03.487Z,30.20
2017-11-25T01:39:03.446Z,29.20
2017-11-25T01:40:03.415Z,27.30
2017-11-25T01:41:03.374Z,29.70
2017-11-25T01:42:03.331Z,28.30
2017-11-25T01:43:03.298Z,27.90
2017-11-25T01:44:03.253Z,31.30
2017-11-25T01:45:03.229Z,26.10
2017-11-25T01:46:03.179Z,30.20
2017-11-25T01:47:03.135Z,28.40
2017-11-25T01:48:03.097Z,30.60
2017-11-25T01:49:03.055Z,29.30
2017-11-25T01:50:03.033Z,27.00
2017-11-25T01:51:02.977Z,27.30
2017-11-25T01:52:02.952Z,28.60
2017-11-25T01:53:02.903Z,28.30
2017-11-25T01:54:02.859Z,26.80
2017-11-25T01:55:02.837Z,26.80
2017-11-25T01:56:02.780Z,30.50
2017-11-25T01:57:02.768Z,27.50
2017-11-25T01:58:02.703Z,27.70
2017-11-25T01:59:02.673Z,26.50
2017-11-25T02:00:02.630Z,28.10
2017-11-25T02:01:02.593Z,24.00
2017-11-25T02:02:02.556Z,29.60
2017-11-25T02:03:02.508Z,33.30
2017-11-25T02:04:02.470Z,27.30
2017-11-25T02:05:02.428Z,28.10
2017-11-25T02:06:02.395Z,27.00
2017-11-25T02:07:02.352Z,28.90
2017-11-25T02:08:02.314Z,31.10
2017-11-25T02:09:02.274Z,29.50
2017-11-25T02:10:02.233Z,29.00
2017-11-25T02:11:02.199Z,28.90
2017-11-25T02:12:02.156Z,29.40
2017-11-25T02:13:02.119Z,33.00
2017-11-25T02:14:02.091Z,30.20
2017-11-25T02:15:02.049Z,28.10
2017-11-25T02:16:02.001Z,30.40
2017-11-25T02:17:01.959Z,29.60
2017-11-25T02:18:01.921Z,30.00
2017-11-25T02:19:01.896Z,28.00
2017-11-25T02:20:01.848Z,29.00
2017-11-25T02:21:01.813Z,27.40
2017-11-25T02:22:01.790Z,30.40
2017-11-25T02:23:01.725Z,28.90
2017-11-25T02:24:01.685Z,30.50
2017-11-25T02:25:01.653Z,30.50
2017-11-25T02:26:01.617Z,28.30
2017-11-25T02:27:01.572Z,28.40
2017-11-25T02:28:01.537Z,29.20
2017-11-25T02:29:01.516Z,29.20
2017-11-25T02:30:01.460Z,28.20
2017-11-25T02:31:01.418Z,28.00
2017-11-25T02:32:01.383Z,30.20
2017-11-25T02:33:01.350Z,30.00
2017-11-25T02:34:01.295Z,28.40
2017-11-25T02:35:01.260Z,27.10
2017-11-25T02:36:01.220Z,27.40
2017-11-25T02:37:01.178Z,27.90
2017-11-25T02:38:01.145Z,28.80
2017-11-25T02:39:01.114Z,28.80
2017-11-25T02:40:01.063Z,30.80
2017-11-25T02:41:01.025Z,28.10
2017-11-25T02:42:00.986Z,29.80
2017-11-25T02:43:00.943Z,28.90
2017-11-25T02:44:00.916Z,30.00
2017-11-25T02:45:00.865Z,31.00
2017-11-25T02:46:00.828Z,30.20
2017-11-25T02:47:00.792Z,31.20
2017-11-25T02:48:00.748Z,32.40
2017-11-25T02:49:00.710Z,27.50
2017-11-25T02:50:00.673Z,33.40
2017-11-25T02:51:00.642Z,37.90
2017-11-25T02:52:00.595Z,32.60
2017-11-25T02:53:01.560Z,31.20
2017-11-25T02:54:00.528Z,34.30
2017-11-25T02:55:00.478Z,33.60
2017-11-25T02:56:00.436Z,31.90
2017-11-25T02:57:00.398Z,32.10
2017-11-25T02:58:00.388Z,35.80
2017-11-25T02:59:00.334Z,32.70
2017-11-25T03:00:00.288Z,27.90
2017-11-25T03:01:00.242Z,36.50
2017-11-25T03:02:00.209Z,32.50
2017-11-25T03:03:00.172Z,34.70
2017-11-25T03:04:00.122Z,32.50
2017-11-25T03:05:00.092Z,31.00
2017-11-25T03:06:00.045Z,30.00
2017-11-25T03:07:00.008Z,32.20
2017-11-25T03:07:59.981Z,28.30
2017-11-25T03:08:59.938Z,29.70
2017-11-25T03:09:59.902Z,31.90
2017-11-25T03:10:59.854Z,33.60
2017-11-25T03:11:59.828Z,32.00
2017-11-25T03:12:59.784Z,29.10
2017-11-25T03:13:59.751Z,30.70
2017-11-25T03:14:59.700Z,30.90
2017-11-25T03:15:59.668Z,32.40
2017-11-25T03:16:59.637Z,28.50
2017-11-25T03:17:59.579Z,28.10
2017-11-25T03:18:59.544Z,29.80
2017-11-25T03:19:59.509Z,26.80
2017-11-25T03:20:59.468Z,29.00
2017-11-25T03:21:59.445Z,28.50
2017-11-25T03:22:59.393Z,33.20
2017-11-25T03:23:59.350Z,28.40
2017-11-25T03:24:59.308Z,30.70
2017-11-25T03:25:59.293Z,26.50
2017-11-25T03:26:59.232Z,29.30
2017-11-25T03:27:59.221Z,24.50
2017-11-25T03:28:59.162Z,27.10
2017-11-25T03:29:59.106Z,26.20
2017-11-25T03:30:59.079Z,28.10
2017-11-25T03:31:59.036Z,29.00
2017-11-25T03:32:58.992Z,25.50
2017-11-25T03:33:58.976Z,25.70
2017-11-25T03:34:58.919Z,21.70
2017-11-25T03:35:58.886Z,26.60
2017-11-25T03:36:58.835Z,24.20
2017-11-25T03:37:58.818Z,26.30
2017-11-25T03:38:58.780Z,24.60
2017-11-25T03:39:58.720Z,27.20
2017-11-25T03:40:58.699Z,24.70
2017-11-25T03:41:58.643Z,25.10
2017-11-25T03:42:58.609Z,22.90
2017-11-25T03:43:58.566Z,25.10
2017-11-25T03:44:58.528Z,27.50
2017-11-25T03:45:58.484Z,26.70
2017-11-25T03:46:58.451Z,27.80
2017-11-25T03:47:58.403Z,24.30
2017-11-25T03:48:58.372Z,24.20
2017-11-25T03:49:58.327Z,28.90
2017-11-25T03:50:58.300Z,23.40
2017-11-25T03:51:58.249Z,25.90
2017-11-25T03:52:58.210Z,26.00
2017-11-25T03:53:58.178Z,28.80
2017-11-25T03:54:58.133Z,24.00
2017-11-25T03:55:58.101Z,26.90
2017-11-25T03:56:58.060Z,27.20
2017-11-25T03:57:58.016Z,27.60
2017-11-25T03:58:57.977Z,27.50
2017-11-25T03:59:57.941Z,27.10
2017-11-25T04:00:57.897Z,28.70
2017-11-25T04:01:57.861Z,27.20
2017-11-25T04:02:57.823Z,27.70
2017-11-25T04:03:57.782Z,28.70
2017-11-25T04:04:57.763Z,31.10
2017-11-25T04:05:57.705Z,32.00
2017-11-25T04:06:58.583Z,31.10
2017-11-25T04:07:57.649Z,30.30
2017-11-25T04:08:57.591Z,30.20
2017-11-25T04:09:57.549Z,29.70
2017-11-25T04:10:57.516Z,33.00
2017-11-25T04:11:57.473Z,33.30
2017-11-25T04:12:57.433Z,33.40
2017-11-25T04:13:57.393Z,32.30
2017-11-25T04:14:57.360Z,31.50
2017-11-25T04:15:57.315Z,32.70
2017-11-25T04:16:57.274Z,35.30
2017-11-25T04:17:57.236Z,31.80
2017-11-25T04:18:57.195Z,33.80
2017-11-25T04:19:57.162Z,33.10
2017-11-25T04:20:57.116Z,31.40
2017-11-25T04:21:57.080Z,35.90
2017-11-25T04:22:57.038Z,32.60
2017-11-25T04:23:57.001Z,34.80
2017-11-25T04:24:56.964Z,37.00
2017-11-25T04:25:56.931Z,38.10
2017-11-25T04:26:56.879Z,35.40
2017-11-25T04:27:56.842Z,40.70
2017-11-25T04:28:56.803Z,38.30
2017-11-25T04:29:56.762Z,39.20
2017-11-25T04:30:56.729Z,39.70
2017-11-25T04:31:56.711Z,40.70
2017-11-25T04:32:56.649Z,41.50
2017-11-25T04:33:56.605Z,41.20
2017-11-25T04:34:56.582Z,46.10
2017-11-25T04:35:56.528Z,47.60
2017-11-25T04:36:56.489Z,47.00
2017-11-25T04:37:56.475Z,47.00
2017-11-25T04:38:56.411Z,47.60
2017-11-25T04:39:56.380Z,51.30
2017-11-25T04:40:56.331Z,52.20
2017-11-25T04:41:56.291Z,52.60
2017-11-25T04:42:56.258Z,48.40
2017-11-25T04:43:56.216Z,50.40
2017-11-25T04:44:56.178Z,48.50
2017-11-25T04:45:56.156Z,48.20
2017-11-25T04:46:56.099Z,49.70
2017-11-25T04:47:56.053Z,54.20
2017-11-25T04:48:56.038Z,55.50
2017-11-25T04:49:55.985Z,52.60
2017-11-25T04:50:55.940Z,52.90
2017-11-25T04:51:55.895Z,49.30
2017-11-25T04:52:55.858Z,54.70
2017-11-25T04:53:55.831Z,54.00
2017-11-25T04:54:55.775Z,50.90
2017-11-25T04:55:55.742Z,61.70
2017-11-25T04:56:55.702Z,59.50
2017-11-25T04:57:55.659Z,61.70
2017-11-25T04:58:55.618Z,58.70
2017-11-25T04:59:55.578Z,63.70
2017-11-25T05:00:55.544Z,65.80
2017-11-25T05:01:56.088Z,66.30
2017-11-25T05:02:55.537Z,71.40
2017-11-25T05:03:55.427Z,65.50
2017-11-25T05:04:55.384Z,68.40
2017-11-25T05:05:55.355Z,64.30
2017-11-25T05:06:55.317Z,68.20
2017-11-25T05:07:55.275Z,65.30
2017-11-25T05:08:55.241Z,75.10
2017-11-25T05:09:55.190Z,73.70
2017-11-25T05:10:55.147Z,71.10
2017-11-25T05:11:55.102Z,71.30
2017-11-25T05:12:55.072Z,63.50
2017-11-25T05:13:55.065Z,69.00
2017-11-25T05:14:54.984Z,77.60
2017-11-25T05:15:54.948Z,76.70
2017-11-25T05:16:54.921Z,83.00
2017-11-25T05:17:54.870Z,87.00
2017-11-25T05:18:54.842Z,79.90
2017-11-25T05:19:54.799Z,70.40
2017-11-25T05:20:54.747Z,81.60
2017-11-25T05:21:54.718Z,74.30
2017-11-25T05:22:54.669Z,69.50
2017-11-25T05:23:54.635Z,70.70
2017-11-25T05:24:54.603Z,70.90
2017-11-25T05:25:54.566Z,67.90
2017-11-25T05:26:54.512Z,61.80
2017-11-25T05:27:54.480Z,73.80
2017-11-25T05:28:54.440Z,69.70
2017-11-25T05:29:54.396Z,76.00
2017-11-25T05:30:54.366Z,71.10
2017-11-25T05:31:54.312Z,73.60
2017-11-25T05:32:54.274Z,81.70
2017-11-25T05:33:54.240Z,80.80
2017-11-25T05:34:54.192Z,77.00
2017-11-25T05:35:54.150Z,71.70
2017-11-25T05:36:54.117Z,72.50
2017-11-25T05:37:54.077Z,78.10
2017-11-25T05:38:54.043Z,71.30
2017-11-25T05:39:53.996Z,75.40
2017-11-25T05:40:53.954Z,64.20
2017-11-25T05:41:53.912Z,65.90
2017-11-25T05:42:53.873Z,62.60
2017-11-25T05:43:53.850Z,68.30
2017-11-25T05:44:53.792Z,73.70
2017-11-25T05:45:53.753Z,66.50
2017-11-25T05:46:53.717Z,66.60
2017-11-25T05:47:53.673Z,63.70
2017-11-25T05:48:53.632Z,60.90
2017-11-25T05:49:53.597Z,64.10
2017-11-25T05:50:53.557Z,57.40
2017-11-25T05:51:53.513Z,65.90
2017-11-25T05:52:53.476Z,73.20
2017-11-25T05:53:53.438Z,68.80
2017-11-25T05:54:53.395Z,71.20
2017-11-25T05:55:53.353Z,78.60
2017-11-25T05:56:53.314Z,76.00
2017-11-25T05:57:53.273Z,80.60
2017-11-25T05:58:53.234Z,83.30
2017-11-25T05:59:53.204Z,79.40
2017-11-25T06:00:53.162Z,79.70
2017-11-25T06:01:53.114Z,82.90
2017-11-25T06:02:53.080Z,62.40
2017-11-25T06:03:53.036Z,66.80
2017-11-25T06:04:53.030Z,50.10
2017-11-25T06:05:52.953Z,58.90
2017-11-25T06:06:52.926Z,61.70
2017-11-25T06:07:52.875Z,69.50
2017-11-25T06:08:52.837Z,73.90
2017-11-25T06:09:52.796Z,58.60
2017-11-25T06:10:52.782Z,66.90
2017-11-25T06:11:52.723Z,66.80
2017-11-25T06:12:52.693Z,64.70
2017-11-25T06:13:52.646Z,53.80
2017-11-25T06:14:52.601Z,50.40
2017-11-25T06:15:52.563Z,53.30
2017-11-25T06:16:52.519Z,56.40
2017-11-25T06:17:52.482Z,58.90
2017-11-25T06:18:52.437Z,65.40
2017-11-25T06:19:52.399Z,72.10
2017-11-25T06:20:52.357Z,80.90
2017-11-25T06:21:52.323Z,80.70
2017-11-25T06:22:52.279Z,91.40
2017-11-25T06:23:52.238Z,98.10
2017-11-25T06:24:52.197Z,93.80
2017-11-25T06:25:52.158Z,94.00
2017-11-25T06:26:52.120Z,85.40
2017-11-25T06:27:52.075Z,95.40
2017-11-25T06:28:53.584Z,90.80
2017-11-25T06:29:51.997Z,92.80
2017-11-25T06:30:51.958Z,87.00
2017-11-25T06:31:51.913Z,85.60
2017-11-25T06:32:51.875Z,79.30
2017-11-25T06:33:51.836Z,82.00
2017-11-25T06:34:51.804Z,73.40
2017-11-25T06:35:52.631Z,82.00
2017-11-25T06:36:51.723Z,84.40
2017-11-25T06:37:51.675Z,93.40
2017-11-25T06:38:51.633Z,68.30
2017-11-25T06:39:51.603Z,68.40
2017-11-25T06:40:51.556Z,75.40
2017-11-25T06:41:51.515Z,76.40
2017-11-25T06:42:51.482Z,71.60
2017-11-25T06:43:51.434Z,74.40
2017-11-25T06:44:51.393Z,71.30
2017-11-25T06:45:51.355Z,86.80
2017-11-25T06:46:51.321Z,81.00
2017-11-25T06:47:51.290Z,78.90
2017-11-25T06:48:51.231Z,79.20
2017-11-25T06:49:51.196Z,62.60
2017-11-25T06:50:51.157Z,47.90
2017-11-25T06:51:51.116Z,58.40
2017-11-25T06:52:51.070Z,64.90
2017-11-25T06:53:51.033Z,48.90
2017-11-25T06:54:50.993Z,43.50
2017-11-25T06:55:50.951Z,40.50
2017-11-25T06:56:50.907Z,57.90
2017-11-25T06:57:50.872Z,43.60
2017-11-25T06:58:50.829Z,52.90
2017-11-25T06:59:50.790Z,59.20
2017-11-25T07:00:50.758Z,52.90
2017-11-25T07:01:50.713Z,65.20
2017-11-25T07:02:50.671Z,62.20
2017-11-25T07:03:50.627Z,55.30
2017-11-25T07:04:50.586Z,42.40
2017-11-25T07:05:50.545Z,28.70
2017-11-25T07:06:50.509Z,27.70
2017-11-25T07:08:26.120Z,43.20
2017-11-25T07:09:13.143Z,42.70
2017-11-25T07:09:50.383Z,44.10
2017-11-25T07:10:50.345Z,46.20
2017-11-25T07:11:50.307Z,56.60
2017-11-25T07:12:50.270Z,51.30
2017-11-25T07:13:50.235Z,57.10
2017-11-25T07:14:50.186Z,66.90
2017-11-25T07:15:50.151Z,57.50
2017-11-25T07:16:50.106Z,47.00
2017-11-25T07:17:50.067Z,45.00
2017-11-25T07:18:50.021Z,59.30
2017-11-25T07:19:49.981Z,57.40
2017-11-25T07:20:49.957Z,45.20
2017-11-25T07:21:49.902Z,58.50
2017-11-25T07:22:49.871Z,70.00
2017-11-25T07:23:49.823Z,73.10
2017-11-25T07:24:49.799Z,73.60
2017-11-25T07:25:49.738Z,62.50
2017-11-25T07:26:49.694Z,64.00
2017-11-25T07:27:49.654Z,69.80
2017-11-25T07:28:49.619Z,56.90
2017-11-25T07:29:49.576Z,56.60
2017-11-25T07:30:49.540Z,65.50
2017-11-25T07:31:49.494Z,67.40
2017-11-25T07:32:49.472Z,63.30
2017-11-25T07:33:49.416Z,64.10
2017-11-25T07:34:49.380Z,67.40
2017-11-25T07:35:49.340Z,65.50
2017-11-25T07:36:49.292Z,64.10
2017-11-25T07:37:49.255Z,64.90
2017-11-25T07:38:49.260Z,75.70
2017-11-25T07:39:49.195Z,79.60
2017-11-25T07:40:49.160Z,81.10
2017-11-25T07:41:49.106Z,93.30
2017-11-25T07:42:49.056Z,90.80
2017-11-25T07:43:49.065Z,76.50
2017-11-25T07:44:48.981Z,89.90
2017-11-25T07:45:48.949Z,89.00
2017-11-25T07:46:48.889Z,86.70
2017-11-25T07:47:48.855Z,66.40
2017-11-25T07:48:48.811Z,69.00
2017-11-25T07:49:48.820Z,86.00
2017-11-25T07:50:48.726Z,91.80
2017-11-25T07:51:48.693Z,93.10
2017-11-25T07:52:48.664Z,103.30
2017-11-25T07:53:48.639Z,98.20
2017-11-25T07:54:48.575Z,86.60
2017-11-25T07:55:48.543Z,81.20
2017-11-25T07:56:48.553Z,83.60
2017-11-25T07:57:48.455Z,83.20
2017-11-25T07:58:48.488Z,65.00
2017-11-25T07:59:48.366Z,38.20
2017-11-25T08:00:48.349Z,52.80
2017-11-25T08:01:48.292Z,61.30
2017-11-25T08:02:51.087Z,39.30
2017-11-25T08:03:48.227Z,64.70
2017-11-25T08:04:48.168Z,38.70
2017-11-25T08:05:48.130Z,57.60
2017-11-25T08:06:48.097Z,63.60
2017-11-25T08:07:48.049Z,63.00
2017-11-25T08:08:48.006Z,53.70
2017-11-25T08:09:47.986Z,52.70
2017-11-25T08:10:47.920Z,48.30
2017-11-25T08:11:47.885Z,34.00
2017-11-25T08:12:47.853Z,42.90
2017-11-25T08:13:47.813Z,46.30
2017-11-25T08:14:47.760Z,66.80
2017-11-25T08:15:47.720Z,73.50
2017-11-25T08:16:47.680Z,76.50
2017-11-25T08:17:47.651Z,53.20
2017-11-25T08:18:47.606Z,50.70
2017-11-25T08:19:47.575Z,59.40
2017-11-25T08:20:47.518Z,58.50
2017-11-25T08:21:47.499Z,65.00
2017-11-25T08:22:47.442Z,55.60
2017-11-25T08:23:47.396Z,66.30
2017-11-25T08:24:47.362Z,57.50
2017-11-25T08:25:47.316Z,40.00
2017-11-25T08:26:47.287Z,29.90
2017-11-25T08:27:47.249Z,38.00
2017-11-25T08:28:47.205Z,50.70
2017-11-25T08:29:47.153Z,46.30
2017-11-25T08:30:47.117Z,46.70
2017-11-25T08:31:47.084Z,46.30
2017-11-25T08:32:47.040Z,32.30
2017-11-25T08:33:46.994Z,6.20
2017-11-25T08:34:46.960Z,24.40
2017-11-25T08:35:46.915Z,21.40
2017-11-25T08:36:46.873Z,36.70
2017-11-25T08:37:46.835Z,18.20
2017-11-25T08:38:47.623Z,20.10
2017-11-25T08:39:46.758Z,26.10
2017-11-25T08:40:47.638Z,25.40
2017-11-25T08:41:46.676Z,29.00
2017-11-25T08:42:46.627Z,33.20
2017-11-25T08:43:46.585Z,32.30
2017-11-25T08:44:46.552Z,43.80
2017-11-25T08:45:46.507Z,46.20
2017-11-25T08:46:46.471Z,32.10
2017-11-25T08:47:46.429Z,14.70
2017-11-25T08:49:07.403Z,35.90
2017-11-25T08:49:46.349Z,41.30
2017-11-25T08:50:46.318Z,24.10
2017-11-25T08:51:46.278Z,27.40
2017-11-25T08:52:46.222Z,23.90
2017-11-25T08:53:48.130Z,50.20
2017-11-25T08:54:46.158Z,69.70
2017-11-25T08:55:47.632Z,65.00
2017-11-25T08:56:46.061Z,58.20
2017-11-25T08:57:46.027Z,57.80
2017-11-25T08:58:45.987Z,51.70
2017-11-25T08:59:45.955Z,39.10
2017-11-25T09:00:45.905Z,39.60
2017-11-25T09:01:45.864Z,32.60
2017-11-25T09:02:45.833Z,21.40
2017-11-25T09:03:45.825Z,28.50
2017-11-25T09:04:45.749Z,29.70
2017-11-25T09:05:46.615Z,35.10
2017-11-25T09:06:45.663Z,36.30
2017-11-25T09:07:45.613Z,26.20
2017-11-25T09:08:45.583Z,29.20
2017-11-25T09:09:45.535Z,25.00
2017-11-25T09:10:45.508Z,30.20
2017-11-25T09:11:45.464Z,24.80
2017-11-25T09:12:46.136Z,19.80
2017-11-25T09:13:45.374Z,18.70
2017-11-25T09:14:45.335Z,20.60
2017-11-25T09:15:45.308Z,25.90
2017-11-25T09:16:45.259Z,18.50
2017-11-25T09:17:45.208Z,24.30
2017-11-25T09:18:45.170Z,6.70
2017-11-25T09:19:45.131Z,21.80
2017-11-25T09:20:45.087Z,20.80
2017-11-25T09:21:45.052Z,27.30
2017-11-25T09:22:45.012Z,22.30
2017-11-25T09:23:44.993Z,20.50
2017-11-25T09:24:44.941Z,13.10
2017-11-25T09:25:44.893Z,14.20
2017-11-25T09:26:44.854Z,11.40
2017-11-25T09:27:44.821Z,9.90
2017-11-25T09:28:44.770Z,13.90
2017-11-25T09:29:44.726Z,14.40
2017-11-25T09:30:44.697Z,16.40
2017-11-25T09:31:45.617Z,8.80
2017-11-25T09:32:44.605Z,18.30
2017-11-25T09:33:44.571Z,7.80
2017-11-25T09:34:44.523Z,8.60
2017-11-25T09:35:44.488Z,8.40
2017-11-25T09:36:51.585Z,12.30
2017-11-25T09:38:37.267Z,14.80
2017-11-25T09:39:37.226Z,12.30
2017-11-25T09:41:30.028Z,9.80
2017-11-25T09:42:29.974Z,9.50
2017-11-25T09:44:22.803Z,7.70
2017-11-25T09:45:22.751Z,5.20
2017-11-25T09:47:15.672Z,11.30
2017-11-25T09:48:15.525Z,6.00
2017-11-25T09:50:08.337Z,11.60
2017-11-25T09:51:08.293Z,10.30
2017-11-25T09:53:01.111Z,11.70
2017-11-25T09:54:01.053Z,12.10
2017-11-25T09:55:54.462Z,9.70
2017-11-25T09:56:53.877Z,8.80
2017-11-25T09:58:46.711Z,14.00
2017-11-25T09:59:46.657Z,6.50
2017-11-25T10:01:39.437Z,9.40
2017-11-25T10:02:39.377Z,10.60
2017-11-25T10:04:32.297Z,13.00
2017-11-25T10:05:32.183Z,14.60
2017-11-25T10:07:24.985Z,7.70
2017-11-25T10:08:24.907Z,8.30
2017-11-25T10:10:17.838Z,9.10
2017-11-25T10:11:17.674Z,9.20
2017-11-25T10:13:10.481Z,9.20
2017-11-25T10:14:10.436Z,8.20
2017-11-25T10:16:03.275Z,10.60
2017-11-25T10:17:04.836Z,9.80
2017-11-25T10:18:56.056Z,6.00
2017-11-25T10:19:56.019Z,7.30
2017-11-25T10:21:48.837Z,3.10
2017-11-25T10:22:48.780Z,6.00
2017-11-25T10:24:41.593Z,7.50
2017-11-25T10:25:41.559Z,4.60
2017-11-25T10:27:34.369Z,5.70
2017-11-25T10:28:34.310Z,4.90
2017-11-25T10:30:27.972Z,5.20
2017-11-25T10:31:27.938Z,4.00
2017-11-25T10:33:20.881Z,8.40
2017-11-25T10:34:22.373Z,9.00
2017-11-25T10:36:13.521Z,6.60
2017-11-25T10:37:13.468Z,5.10
2017-11-25T10:39:06.312Z,3.30
2017-11-25T10:40:06.264Z,3.50
2017-11-25T10:41:59.946Z,5.30
2017-11-25T10:42:59.902Z,5.20
2017-11-25T10:44:52.756Z,6.50
2017-11-25T10:45:52.690Z,2.80
2017-11-25T10:47:45.475Z,3.00
2017-11-25T10:48:45.452Z,3.00
2017-11-25T10:50:38.267Z,3.50
2017-11-25T10:51:38.201Z,3.60
2017-11-25T10:53:31.019Z,3.20
2017-11-25T10:54:30.996Z,4.00
2017-11-25T10:56:23.836Z,6.80
2017-11-25T10:57:23.775Z,5.40
2017-11-25T10:59:16.550Z,3.60
2017-11-25T11:00:16.523Z,5.40
2017-11-25T11:02:09.333Z,4.60
2017-11-25T11:03:09.270Z,5.10
2017-11-25T11:05:02.108Z,3.90
2017-11-25T11:06:02.089Z,4.60
2017-11-25T11:07:54.904Z,6.60
2017-11-25T11:08:54.894Z,5.10
2017-11-25T11:10:48.137Z,3.70
2017-11-25T11:11:48.083Z,4.20
2017-11-25T11:12:48.056Z,6.20
2017-11-25T11:13:48.003Z,3.10
2017-11-25T11:14:47.968Z,4.10
2017-11-25T11:15:47.945Z,4.70
2017-11-25T11:16:47.901Z,4.70
2017-11-25T11:17:47.885Z,4.40
2017-11-25T11:18:47.811Z,5.20
2017-11-25T11:19:47.771Z,4.40
2017-11-25T11:20:47.725Z,2.60
2017-11-25T11:21:47.673Z,2.90
2017-11-25T11:22:47.635Z,2.30
2017-11-25T11:23:47.593Z,3.00
2017-11-25T11:24:47.552Z,3.20
2017-11-25T11:25:47.512Z,3.30
2017-11-25T11:26:47.471Z,3.00
2017-11-25T11:27:47.439Z,4.40
2017-11-25T11:28:47.408Z,3.00
2017-11-25T11:29:47.349Z,2.70
2017-11-25T11:30:47.307Z,2.60
2017-11-25T11:31:47.283Z,2.90
2017-11-25T11:32:47.230Z,2.70
2017-11-25T11:33:47.185Z,2.50
2017-11-25T11:34:47.142Z,3.70
2017-11-25T11:35:47.103Z,3.40
2017-11-25T11:36:47.056Z,3.80
2017-11-25T11:37:47.031Z,4.30
2017-11-25T11:38:46.978Z,1.80
2017-11-25T11:39:46.937Z,4.40
2017-11-25T11:40:46.900Z,2.60
2017-11-25T11:41:46.852Z,4.00
2017-11-25T11:42:46.832Z,3.50
2017-11-25T11:43:46.784Z,3.90
2017-11-25T11:44:46.739Z,4.40
2017-11-25T11:45:46.690Z,3.30
2017-11-25T11:46:46.647Z,2.20
2017-11-25T11:47:46.605Z,4.00
2017-11-25T11:48:46.575Z,2.60
2017-11-25T11:49:46.541Z,3.10
2017-11-25T11:50:46.487Z,3.70
2017-11-25T11:51:46.438Z,3.00
2017-11-25T11:52:46.408Z,2.80
2017-11-25T11:53:46.360Z,3.10
2017-11-25T11:54:46.318Z,2.80
2017-11-25T11:55:46.276Z,2.90
2017-11-25T11:56:46.237Z,1.90
2017-11-25T11:57:46.208Z,2.00
2017-11-25T11:58:46.156Z,2.40
2017-11-25T11:59:46.118Z,1.70
2017-11-25T12:00:46.077Z,1.80
2017-11-25T12:01:46.030Z,2.40
2017-11-25T12:02:46.000Z,2.50
2017-11-25T12:03:45.949Z,1.80
2017-11-25T12:04:45.908Z,2.50
2017-11-25T12:05:45.873Z,2.30
2017-11-25T12:06:45.846Z,2.10
2017-11-25T12:07:45.781Z,2.80
2017-11-25T12:08:45.741Z,2.30
2017-11-25T12:09:45.718Z,1.80
2017-11-25T12:10:45.662Z,1.40
2017-11-25T12:11:45.616Z,1.70
2017-11-25T12:12:45.585Z,1.90
2017-11-25T12:13:45.533Z,1.90
2017-11-25T12:14:45.506Z,3.40
2017-11-25T12:15:45.460Z,2.20
2017-11-25T12:16:45.411Z,2.00
2017-11-25T12:17:45.371Z,2.70
2017-11-25T12:18:45.325Z,3.40
2017-11-25T12:19:45.281Z,2.00
2017-11-25T12:20:45.247Z,1.60
2017-11-25T12:21:45.207Z,2.90
2017-11-25T12:22:45.163Z,1.50
2017-11-25T12:23:45.129Z,1.60
2017-11-25T12:24:45.084Z,1.80
2017-11-25T12:25:45.039Z,2.70
2017-11-25T12:26:44.998Z,2.90
2017-11-25T12:27:44.952Z,2.50
2017-11-25T12:28:44.917Z,1.90
2017-11-25T12:29:44.869Z,2.20
2017-11-25T12:30:44.829Z,3.50
2017-11-25T12:31:44.788Z,2.10
2017-11-25T12:32:44.749Z,2.20
2017-11-25T12:33:44.712Z,4.30
2017-11-25T12:34:44.664Z,2.60
2017-11-25T12:35:44.624Z,2.90
2017-11-25T12:36:44.581Z,2.90
2017-11-25T12:37:44.542Z,2.70
2017-11-25T12:38:44.496Z,3.00
2017-11-25T12:39:44.455Z,2.50
2017-11-25T12:40:44.427Z,2.50
2017-11-25T12:41:44.369Z,4.10
2017-11-25T12:42:44.336Z,3.80
2017-11-25T12:43:44.293Z,2.30
2017-11-25T12:44:44.247Z,2.30
2017-11-25T12:45:44.221Z,3.10
2017-11-25T12:46:44.172Z,2.50
2017-11-25T12:47:44.120Z,1.70
2017-11-25T12:48:44.085Z,2.90
2017-11-25T12:49:44.043Z,2.20
2017-11-25T12:50:43.999Z,2.50
2017-11-25T12:51:43.961Z,1.80
2017-11-25T12:52:43.914Z,2.50
2017-11-25T12:53:43.870Z,1.70
2017-11-25T12:54:43.832Z,2.00
2017-11-25T12:55:44.751Z,3.40
2017-11-25T12:56:43.770Z,2.40
2017-11-25T12:57:43.704Z,2.20
2017-11-25T12:58:43.668Z,3.50
2017-11-25T12:59:43.623Z,2.60
2017-11-25T13:00:43.581Z,3.60
2017-11-25T13:01:43.539Z,2.50
2017-11-25T13:02:43.503Z,2.90
2017-11-25T13:03:43.477Z,3.60
2017-11-25T13:04:43.413Z,3.10
2017-11-25T13:05:43.380Z,2.70
2017-11-25T13:06:43.348Z,3.90
2017-11-25T13:07:43.288Z,2.70
2017-11-25T13:08:43.275Z,2.80
2017-11-25T13:09:43.237Z,3.80
2017-11-25T13:10:43.171Z,3.90
2017-11-25T13:11:43.135Z,3.20
2017-11-25T13:12:43.112Z,5.20
2017-11-25T13:13:43.054Z,2.00
2017-11-25T13:14:43.023Z,2.20
2017-11-25T13:15:42.966Z,1.80
2017-11-25T13:16:42.941Z,1.60
2017-11-25T13:17:42.877Z,2.00
2017-11-25T13:18:42.847Z,1.80
2017-11-25T13:19:42.805Z,1.90
2017-11-25T13:20:42.860Z,2.00
2017-11-25T13:21:42.719Z,1.70
2017-11-25T13:22:42.677Z,1.80
2017-11-25T13:23:43.271Z,1.70
2017-11-25T13:24:42.592Z,1.60
2017-11-25T13:25:42.539Z,2.10
2017-11-25T13:26:42.528Z,2.70
2017-11-25T13:27:42.457Z,1.80